createdAt,value
2023-01-31T00:01:42.022Z,3.78
2023-01-31T00:04:14.204Z,3.30
2023-01-31T00:06:44.688Z,3.70
2023-01-31T00:09:13.216Z,3.40
2023-01-31T00:11:40.540Z,3.45
2023-01-31T00:14:10.707Z,3.17
2023-01-31T00:16:38.483Z,3.50
2023-01-31T00:19:06.197Z,3.63
2023-01-31T00:21:33.826Z,3.50
2023-01-31T00:24:01.460Z,3.30
2023-01-31T00:26:34.893Z,3.47
2023-01-31T00:29:04.181Z,3.40
2023-01-31T00:31:33.391Z,3.25
2023-01-31T00:34:01.393Z,2.95
2023-01-31T00:36:34.756Z,3.75
2023-01-31T00:39:04.249Z,3.37
2023-01-31T00:41:32.697Z,2.97
2023-01-31T00:43:59.927Z,3.40
2023-01-31T00:46:27.633Z,3.65
2023-01-31T00:48:56.676Z,3.83
2023-01-31T00:51:26.918Z,3.42
2023-01-31T00:53:54.877Z,3.20
2023-01-31T00:56:24.521Z,3.58
2023-01-31T00:58:52.965Z,3.13
2023-01-31T01:01:23.098Z,3.90
2023-01-31T01:03:51.016Z,3.17
2023-01-31T01:06:19.056Z,3.40
2023-01-31T01:08:46.630Z,3.20
2023-01-31T01:11:16.844Z,3.50
2023-01-31T01:13:44.945Z,3.58
2023-01-31T01:16:21.604Z,2.72
2023-01-31T01:18:50.610Z,3.20
2023-01-31T01:21:24.124Z,2.97
2023-01-31T01:23:53.531Z,3.30
2023-01-31T01:26:26.744Z,3.00
2023-01-31T01:28:56.903Z,3.15
2023-01-31T01:31:30.761Z,3.20
2023-01-31T01:34:13.423Z,3.20
2023-01-31T01:36:41.557Z,2.85
2023-01-31T01:39:12.220Z,3.30
2023-01-31T01:41:40.900Z,3.58
2023-01-31T01:44:45.008Z,3.08
2023-01-31T01:47:24.099Z,2.85
2023-01-31T01:50:01.001Z,3.20
2023-01-31T01:52:30.810Z,3.30
2023-01-31T01:55:04.111Z,3.30
2023-01-31T01:57:36.384Z,3.40
2023-01-31T02:00:09.976Z,3.83
2023-01-31T02:02:37.859Z,2.92
2023-01-31T02:05:07.131Z,3.30
2023-01-31T02:07:34.461Z,3.10
2023-01-31T02:10:16.504Z,3.78
2023-01-31T02:12:43.940Z,3.00
2023-01-31T02:15:11.544Z,3.83
2023-01-31T02:17:38.924Z,3.70
2023-01-31T02:20:37.353Z,3.20
2023-01-31T02:23:26.103Z,3.22
2023-01-31T02:26:20.698Z,3.75
2023-01-31T02:28:59.844Z,3.63
2023-01-31T02:31:47.136Z,2.95
2023-01-31T02:34:29.522Z,3.80
2023-01-31T02:37:11.669Z,3.42
2023-01-31T02:39:41.323Z,3.60
2023-01-31T02:42:38.959Z,3.28
2023-01-31T02:45:19.803Z,3.33
2023-01-31T02:48:08.282Z,3.55
2023-01-31T02:51:08.183Z,3.17
2023-01-31T02:53:41.434Z,3.40
2023-01-31T02:56:18.419Z,3.60
2023-01-31T02:58:57.185Z,3.88
2023-01-31T03:01:32.262Z,3.13
2023-01-31T03:04:08.678Z,3.53
2023-01-31T03:06:36.748Z,3.58
2023-01-31T03:09:10.526Z,3.10
2023-01-31T03:12:06.767Z,3.63
2023-01-31T03:14:57.116Z,3.40
2023-01-31T03:17:51.921Z,2.83
2023-01-31T03:20:44.750Z,3.05
2023-01-31T03:23:19.201Z,3.80
2023-01-31T03:28:21.078Z,3.50
2023-01-31T03:31:18.831Z,3.90
2023-01-31T03:33:52.232Z,3.35
2023-01-31T03:36:49.509Z,3.90
2023-01-31T03:39:38.567Z,3.33
2023-01-31T03:42:23.837Z,3.10
2023-01-31T03:45:06.355Z,3.60
2023-01-31T03:47:39.992Z,2.83
2023-01-31T03:50:14.116Z,2.77
2023-01-31T03:52:51.200Z,3.42
2023-01-31T03:55:26.590Z,2.70
2023-01-31T03:57:56.261Z,3.47
2023-01-31T04:00:25.101Z,3.35
2023-01-31T04:02:59.299Z,3.70
2023-01-31T04:05:30.856Z,3.10
2023-01-31T04:07:59.175Z,3.03
2023-01-31T04:10:26.703Z,2.88
2023-01-31T04:12:54.457Z,3.42
2023-01-31T04:15:22.434Z,3.40
2023-01-31T04:17:49.959Z,2.83
2023-01-31T04:20:17.295Z,3.17
2023-01-31T04:22:44.557Z,3.17
2023-01-31T04:25:11.715Z,3.03
2023-01-31T04:27:39.551Z,3.00
2023-01-31T04:30:08.280Z,2.97
2023-01-31T04:32:35.470Z,3.58
2023-01-31T04:35:02.782Z,2.90
2023-01-31T04:37:30.063Z,3.25
2023-01-31T04:39:57.180Z,2.83
2023-01-31T04:42:24.274Z,4.03
2023-01-31T04:44:51.497Z,3.60
2023-01-31T04:47:18.738Z,3.50
2023-01-31T04:49:45.894Z,3.60
2023-01-31T04:52:13.116Z,2.90
2023-01-31T04:54:40.385Z,2.83
2023-01-31T04:57:07.824Z,3.30
2023-01-31T04:59:34.975Z,2.88
2023-01-31T05:02:02.185Z,3.63
2023-01-31T05:04:29.328Z,2.65
2023-01-31T05:06:56.593Z,3.25
2023-01-31T05:09:25.127Z,3.00
2023-01-31T05:11:52.440Z,3.25
2023-01-31T05:14:21.270Z,3.15
2023-01-31T05:16:48.665Z,3.40
2023-01-31T05:19:16.302Z,2.83
2023-01-31T05:21:55.894Z,2.90
2023-01-31T05:24:24.211Z,2.92
2023-01-31T05:26:53.113Z,2.92
2023-01-31T05:29:20.564Z,2.72
2023-01-31T05:31:52.507Z,2.80
2023-01-31T05:34:19.895Z,3.28
2023-01-31T05:36:47.456Z,3.10
2023-01-31T05:39:14.709Z,3.30
2023-01-31T05:41:42.096Z,2.83
2023-01-31T05:44:09.686Z,2.63
2023-01-31T05:46:37.107Z,2.95
2023-01-31T05:49:04.791Z,2.95
2023-01-31T05:51:32.357Z,2.88
2023-01-31T05:54:00.463Z,3.15
2023-01-31T05:56:27.807Z,3.47
2023-01-31T05:58:54.937Z,3.25
2023-01-31T06:01:25.006Z,3.22
2023-01-31T06:03:52.372Z,2.95
2023-01-31T06:06:21.290Z,3.65
2023-01-31T06:08:48.964Z,3.70
2023-01-31T06:11:16.143Z,3.28
2023-01-31T06:13:46.383Z,3.85
2023-01-31T06:16:13.631Z,3.00
2023-01-31T06:18:40.964Z,2.90
2023-01-31T06:21:08.189Z,3.50
2023-01-31T06:23:35.320Z,3.15
2023-01-31T06:26:02.518Z,3.17
2023-01-31T06:28:29.668Z,2.60
2023-01-31T06:30:59.098Z,3.03
2023-01-31T06:33:42.158Z,3.47
2023-01-31T06:36:11.605Z,3.72
2023-01-31T06:38:38.880Z,3.10
2023-01-31T06:41:06.098Z,2.92
2023-01-31T06:43:33.228Z,3.42
2023-01-31T06:46:00.493Z,3.15
2023-01-31T06:48:27.663Z,3.53
2023-01-31T06:50:54.958Z,2.53
2023-01-31T06:53:22.810Z,2.92
2023-01-31T06:55:50.021Z,3.20
2023-01-31T06:58:19.087Z,3.67
2023-01-31T07:00:48.233Z,3.40
2023-01-31T07:03:15.412Z,3.45
2023-01-31T07:05:43.090Z,3.38
2023-01-31T07:08:10.267Z,3.47
2023-01-31T07:10:37.450Z,3.53
2023-01-31T07:13:04.669Z,3.30
2023-01-31T07:15:32.483Z,3.45
2023-01-31T07:18:00.357Z,3.38
2023-01-31T07:20:27.554Z,2.95
2023-01-31T07:22:56.910Z,3.65
2023-01-31T07:25:24.959Z,3.53
2023-01-31T07:27:52.791Z,2.83
2023-01-31T07:30:20.189Z,2.83
2023-01-31T07:32:47.479Z,3.08
2023-01-31T07:35:14.869Z,3.63
2023-01-31T07:37:43.688Z,4.18
2023-01-31T07:40:12.824Z,2.67
2023-01-31T07:42:40.775Z,3.17
2023-01-31T07:45:22.411Z,3.03
2023-01-31T07:47:50.417Z,3.13
2023-01-31T07:50:18.097Z,2.83
2023-01-31T07:52:45.390Z,3.63
2023-01-31T07:55:12.617Z,2.95
2023-01-31T07:57:39.776Z,3.67
2023-01-31T08:00:27.699Z,3.13
2023-01-31T08:03:13.585Z,2.88
2023-01-31T08:05:40.972Z,2.63
2023-01-31T08:08:10.829Z,3.00
2023-01-31T08:10:38.739Z,3.10
2023-01-31T08:13:06.837Z,2.78
2023-01-31T08:15:34.571Z,3.03
2023-01-31T08:18:03.857Z,3.00
2023-01-31T08:20:33.327Z,2.90
2023-01-31T08:23:00.500Z,2.60
2023-01-31T08:25:31.975Z,3.00
2023-01-31T08:28:00.553Z,3.42
2023-01-31T08:30:28.900Z,3.10
2023-01-31T08:32:57.456Z,2.42
2023-01-31T08:35:26.636Z,3.00
2023-01-31T08:38:00.855Z,2.88
2023-01-31T08:40:34.204Z,2.63
2023-01-31T08:43:01.509Z,2.40
2023-01-31T08:45:30.495Z,2.75
2023-01-31T08:47:59.775Z,2.40
2023-01-31T08:50:30.332Z,2.63
2023-01-31T08:53:00.652Z,3.13
2023-01-31T08:55:30.199Z,2.88
2023-01-31T08:58:00.009Z,2.38
2023-01-31T09:00:28.938Z,2.42
2023-01-31T09:03:01.379Z,2.33
2023-01-31T09:05:30.531Z,2.40
2023-01-31T09:07:58.116Z,2.80
2023-01-31T09:10:25.358Z,2.30
2023-01-31T09:12:52.559Z,2.72
2023-01-31T09:15:20.169Z,2.75
2023-01-31T09:17:47.659Z,2.90
2023-01-31T09:20:15.245Z,3.10
2023-01-31T09:22:42.477Z,2.78
2023-01-31T09:25:10.110Z,2.45
2023-01-31T09:27:39.083Z,3.05
2023-01-31T09:30:10.395Z,2.85
2023-01-31T09:32:39.045Z,2.38
2023-01-31T09:35:06.647Z,2.63
2023-01-31T09:37:33.901Z,2.83
2023-01-31T09:40:01.109Z,2.60
2023-01-31T09:42:42.907Z,2.72
2023-01-31T09:45:30.018Z,2.72
2023-01-31T09:48:00.972Z,2.42
2023-01-31T09:50:43.668Z,2.58
2023-01-31T09:53:15.033Z,2.65
2023-01-31T09:56:10.863Z,2.72
2023-01-31T09:58:55.884Z,2.72
2023-01-31T10:04:14.657Z,2.22
2023-01-31T10:07:01.519Z,2.28
2023-01-31T10:09:36.029Z,2.47
2023-01-31T10:12:17.822Z,2.53
2023-01-31T10:14:59.077Z,2.55
2023-01-31T10:17:40.421Z,2.78
2023-01-31T10:20:20.340Z,2.30
2023-01-31T10:22:59.586Z,3.10
2023-01-31T10:25:52.994Z,4.03
2023-01-31T10:28:50.842Z,2.00
2023-01-31T10:31:39.106Z,1.98
2023-01-31T10:34:24.432Z,3.75
2023-01-31T10:36:57.545Z,3.08
2023-01-31T10:39:58.992Z,2.25
2023-01-31T10:42:38.136Z,1.88
2023-01-31T10:45:24.202Z,2.38
2023-01-31T10:47:54.621Z,2.42
2023-01-31T10:50:42.481Z,1.73
2023-01-31T10:53:34.701Z,1.80
2023-01-31T10:56:11.107Z,1.55
2023-01-31T10:58:39.143Z,1.88
2023-01-31T11:01:12.441Z,1.85
2023-01-31T11:03:49.407Z,1.95
2023-01-31T11:06:17.461Z,1.80
2023-01-31T11:09:01.716Z,2.20
2023-01-31T11:11:30.130Z,2.15
2023-01-31T11:14:17.120Z,1.77
2023-01-31T11:16:45.520Z,2.28
2023-01-31T11:19:34.944Z,1.48
2023-01-31T11:22:04.286Z,1.00
2023-01-31T11:24:34.926Z,1.02
2023-01-31T11:27:07.856Z,2.00
2023-01-31T11:29:48.277Z,1.90
2023-01-31T11:32:27.667Z,1.45
2023-01-31T11:35:06.583Z,1.27
2023-01-31T11:37:34.998Z,0.98
2023-01-31T11:40:16.150Z,1.50
2023-01-31T11:43:04.183Z,1.15
2023-01-31T11:45:36.438Z,1.30
2023-01-31T11:48:33.717Z,1.50
2023-01-31T11:51:03.147Z,1.63
2023-01-31T11:53:43.553Z,4.28
2023-01-31T11:56:16.560Z,1.50
2023-01-31T11:58:46.359Z,1.40
2023-01-31T12:01:15.448Z,1.50
2023-01-31T12:04:03.034Z,1.30
2023-01-31T12:06:39.791Z,1.60
2023-01-31T12:09:20.037Z,1.77
2023-01-31T12:11:55.845Z,1.30
2023-01-31T12:14:25.535Z,1.48
2023-01-31T12:16:56.846Z,1.13
2023-01-31T12:19:51.864Z,2.00
2023-01-31T12:22:46.311Z,2.50
2023-01-31T12:25:23.093Z,1.50
2023-01-31T12:28:14.760Z,1.20
2023-01-31T12:31:15.438Z,1.40
2023-01-31T12:33:48.412Z,2.05
2023-01-31T12:36:52.442Z,1.65
2023-01-31T12:39:43.626Z,4.43
2023-01-31T12:42:25.313Z,4.07
2023-01-31T12:45:09.835Z,3.83
2023-01-31T12:47:45.540Z,5.50
2023-01-31T12:50:21.788Z,3.00
2023-01-31T12:53:01.173Z,3.15
2023-01-31T12:55:33.814Z,3.25
2023-01-31T12:58:20.244Z,3.00
2023-01-31T13:01:04.755Z,2.05
2023-01-31T13:03:50.095Z,2.80
2023-01-31T13:06:30.536Z,3.72
2023-01-31T13:09:09.645Z,5.40
2023-01-31T13:11:47.849Z,4.68
2023-01-31T13:14:21.697Z,3.95
2023-01-31T13:16:54.442Z,3.10
2023-01-31T13:19:32.509Z,4.40
2023-01-31T13:22:04.100Z,5.93
2023-01-31T13:24:43.026Z,3.33
2023-01-31T13:27:34.945Z,5.60
2023-01-31T13:30:37.973Z,4.00
2023-01-31T13:33:28.608Z,4.55
2023-01-31T13:36:06.813Z,4.28
2023-01-31T13:38:41.739Z,2.30
2023-01-31T13:41:30.931Z,3.20
2023-01-31T13:43:59.251Z,3.35
2023-01-31T13:46:44.542Z,2.58
2023-01-31T13:49:26.835Z,3.15
2023-01-31T13:52:01.319Z,3.05
2023-01-31T13:55:00.353Z,2.72
2023-01-31T13:57:45.964Z,2.25
2023-01-31T14:00:38.290Z,2.20
2023-01-31T14:03:19.015Z,2.45
2023-01-31T14:05:49.274Z,2.72
2023-01-31T14:08:44.463Z,3.00
2023-01-31T14:11:14.724Z,2.70
2023-01-31T14:13:48.076Z,2.80
2023-01-31T14:16:44.192Z,2.83
2023-01-31T14:19:21.931Z,3.30
2023-01-31T14:22:28.012Z,3.20
2023-01-31T14:25:00.349Z,2.42
2023-01-31T14:27:41.060Z,3.35
2023-01-31T14:30:08.447Z,2.85
2023-01-31T14:32:49.047Z,2.40
2023-01-31T14:35:16.452Z,2.55
2023-01-31T14:38:09.734Z,2.25
2023-01-31T14:40:36.874Z,2.10
2023-01-31T14:43:04.003Z,2.72
2023-01-31T14:45:49.039Z,2.65
2023-01-31T14:48:26.811Z,2.45
2023-01-31T14:51:06.385Z,2.42
2023-01-31T14:53:36.293Z,2.25
2023-01-31T14:56:13.456Z,2.92
2023-01-31T14:58:45.410Z,2.97
2023-01-31T15:01:14.021Z,2.78
2023-01-31T15:04:01.347Z,2.50
2023-01-31T15:06:41.128Z,2.70
2023-01-31T15:09:24.758Z,3.00
2023-01-31T15:11:55.834Z,3.10
2023-01-31T15:14:45.229Z,2.45
2023-01-31T15:17:35.556Z,3.15
2023-01-31T15:20:12.637Z,4.25
2023-01-31T15:22:43.342Z,2.80
2023-01-31T15:25:35.666Z,3.80
2023-01-31T15:28:06.468Z,4.15
2023-01-31T15:30:36.282Z,2.95
2023-01-31T15:33:12.504Z,2.50
2023-01-31T15:35:54.753Z,2.10
2023-01-31T15:38:34.710Z,2.35
2023-01-31T15:41:35.748Z,2.63
2023-01-31T15:44:27.846Z,3.10
2023-01-31T15:46:58.524Z,2.78
2023-01-31T15:49:39.976Z,3.10
2023-01-31T15:52:22.766Z,2.70
2023-01-31T15:54:57.519Z,2.35
2023-01-31T15:57:57.342Z,2.60
2023-01-31T16:00:31.994Z,2.40
2023-01-31T16:03:03.716Z,2.85
2023-01-31T16:05:34.299Z,2.50
2023-01-31T16:08:04.412Z,2.05
2023-01-31T16:10:32.769Z,2.63
2023-01-31T16:13:01.746Z,2.78
2023-01-31T16:15:31.240Z,3.70
2023-01-31T16:18:05.231Z,4.55
2023-01-31T16:20:43.797Z,3.70
2023-01-31T16:23:32.295Z,3.20
2023-01-31T16:26:08.151Z,3.47
2023-01-31T16:28:42.570Z,2.42
2023-01-31T16:31:13.506Z,2.75
2023-01-31T16:33:52.145Z,2.72
2023-01-31T16:37:10.709Z,2.20
2023-01-31T16:39:58.268Z,2.55
2023-01-31T16:42:28.127Z,2.60
2023-01-31T16:44:56.324Z,3.50
2023-01-31T16:47:49.285Z,3.42
2023-01-31T16:50:36.847Z,2.70
2023-01-31T16:53:20.369Z,2.67
2023-01-31T16:56:16.251Z,3.35
2023-01-31T16:58:58.241Z,3.75
2023-01-31T17:01:34.070Z,4.15
2023-01-31T17:04:21.655Z,4.13
2023-01-31T17:07:01.166Z,3.53
2023-01-31T17:09:28.874Z,3.10
2023-01-31T17:11:59.535Z,3.20
2023-01-31T17:14:27.375Z,2.72
2023-01-31T17:16:55.295Z,3.58
2023-01-31T17:19:23.549Z,3.15
2023-01-31T17:21:51.923Z,3.42
2023-01-31T17:24:23.474Z,3.97
2023-01-31T17:26:53.991Z,5.45
2023-01-31T17:29:22.652Z,5.55
2023-01-31T17:31:50.235Z,9.73
2023-01-31T17:34:19.370Z,4.70
2023-01-31T17:36:47.266Z,2.80
2023-01-31T17:39:15.565Z,4.32
2023-01-31T17:41:43.067Z,3.30
2023-01-31T17:44:15.964Z,3.83
2023-01-31T17:46:44.861Z,3.08
2023-01-31T17:49:12.836Z,3.47
2023-01-31T17:51:41.869Z,2.70
2023-01-31T17:54:10.543Z,3.00
2023-01-31T17:56:38.496Z,3.00
2023-01-31T17:59:08.401Z,2.85
2023-01-31T18:01:36.863Z,2.90
2023-01-31T18:04:05.642Z,3.35
2023-01-31T18:06:33.713Z,3.17
2023-01-31T18:09:07.922Z,3.70
2023-01-31T18:11:36.237Z,3.90
2023-01-31T18:14:05.700Z,3.95
2023-01-31T18:16:33.987Z,3.90
2023-01-31T18:19:01.732Z,4.38
2023-01-31T18:21:37.070Z,3.60
2023-01-31T18:24:09.274Z,3.92
2023-01-31T18:26:37.715Z,3.92
2023-01-31T18:29:10.590Z,3.58
2023-01-31T18:31:44.301Z,3.85
2023-01-31T18:34:12.794Z,3.85
2023-01-31T18:36:42.516Z,4.22
2023-01-31T18:39:12.852Z,4.20
2023-01-31T18:41:40.780Z,4.07
2023-01-31T18:44:09.157Z,3.67
2023-01-31T18:46:38.429Z,3.53
2023-01-31T18:49:06.711Z,5.00
2023-01-31T18:51:35.044Z,3.70
2023-01-31T18:54:04.605Z,5.88
2023-01-31T18:56:32.910Z,4.13
2023-01-31T18:59:02.178Z,4.65
2023-01-31T19:01:30.497Z,3.55
2023-01-31T19:04:01.238Z,3.85
2023-01-31T19:06:37.639Z,4.35
2023-01-31T19:09:09.182Z,3.28
2023-01-31T19:11:37.353Z,4.10
2023-01-31T19:14:07.350Z,4.47
2023-01-31T19:16:41.283Z,3.55
2023-01-31T19:19:10.907Z,3.15
2023-01-31T19:21:41.632Z,2.70
2023-01-31T19:24:16.521Z,3.55
2023-01-31T19:26:44.923Z,2.40
2023-01-31T19:29:15.648Z,2.17
2023-01-31T19:31:44.166Z,2.60
2023-01-31T19:34:13.079Z,1.92
2023-01-31T19:36:45.309Z,2.20
2023-01-31T19:39:14.525Z,1.98
2023-01-31T19:41:43.860Z,1.90
2023-01-31T19:44:12.158Z,1.70
2023-01-31T19:46:40.522Z,1.52
2023-01-31T19:49:08.571Z,1.67
2023-01-31T19:51:38.787Z,1.90
2023-01-31T19:54:09.526Z,2.00
2023-01-31T19:56:39.060Z,1.40
2023-01-31T19:59:07.241Z,1.60
2023-01-31T20:01:35.746Z,1.55
2023-01-31T20:04:03.859Z,1.75
2023-01-31T20:06:35.018Z,0.98
2023-01-31T20:09:08.120Z,2.10
2023-01-31T20:11:37.151Z,2.70
2023-01-31T20:14:07.520Z,2.10
2023-01-31T20:16:35.770Z,2.45
2023-01-31T20:19:04.407Z,3.05
2023-01-31T20:21:32.392Z,2.00
2023-01-31T20:24:00.345Z,2.30
2023-01-31T20:26:30.158Z,2.05
2023-01-31T20:28:58.803Z,1.73
2023-01-31T20:31:28.427Z,2.20
2023-01-31T20:33:56.305Z,2.33
2023-01-31T20:36:24.985Z,1.80
2023-01-31T20:38:53.103Z,1.92
2023-01-31T20:41:26.301Z,1.60
2023-01-31T20:43:55.168Z,1.40
2023-01-31T20:46:23.463Z,1.50
2023-01-31T20:48:51.365Z,1.58
2023-01-31T20:51:19.399Z,1.92
2023-01-31T20:53:46.960Z,1.55
2023-01-31T20:56:14.886Z,1.40
2023-01-31T20:58:44.103Z,1.98
2023-01-31T21:01:15.745Z,1.83
2023-01-31T21:03:43.366Z,2.17
2023-01-31T21:06:10.918Z,2.08
2023-01-31T21:08:40.347Z,1.90
2023-01-31T21:11:12.019Z,2.20
2023-01-31T21:13:40.660Z,2.10
2023-01-31T21:16:11.933Z,1.75
2023-01-31T21:18:44.323Z,1.80
2023-01-31T21:21:14.953Z,2.10
2023-01-31T21:23:42.893Z,2.10
2023-01-31T21:26:12.195Z,7.07
2023-01-31T21:28:40.267Z,3.28
2023-01-31T21:31:11.150Z,3.60
2023-01-31T21:33:38.517Z,1.67
2023-01-31T21:36:10.763Z,1.90
2023-01-31T21:38:39.505Z,1.65
2023-01-31T21:41:25.781Z,1.80
2023-01-31T21:43:53.203Z,1.70
2023-01-31T21:46:20.524Z,1.30
2023-01-31T21:48:48.771Z,1.50
2023-01-31T21:51:17.324Z,1.25
2023-01-31T21:53:44.915Z,1.10
2023-01-31T21:56:17.419Z,1.70
2023-01-31T21:58:45.259Z,1.05
2023-01-31T22:01:19.652Z,0.88
2023-01-31T22:03:49.023Z,1.10
2023-01-31T22:06:21.231Z,2.33
2023-01-31T22:08:57.111Z,1.48
2023-01-31T22:11:25.249Z,1.40
2023-01-31T22:13:55.927Z,1.00
2023-01-31T22:16:23.489Z,1.40
2023-01-31T22:18:51.276Z,1.60
2023-01-31T22:21:21.082Z,2.67
2023-01-31T22:23:50.564Z,2.00
2023-01-31T22:26:26.352Z,1.85
2023-01-31T22:28:56.142Z,1.00
2023-01-31T22:31:23.489Z,1.10
2023-01-31T22:33:51.214Z,0.98
2023-01-31T22:36:19.338Z,0.77
2023-01-31T22:38:46.793Z,0.80
2023-01-31T22:41:18.283Z,1.10
2023-01-31T22:43:49.720Z,1.02
2023-01-31T22:46:21.680Z,0.75
2023-01-31T22:48:51.653Z,0.55
2023-01-31T22:51:22.578Z,0.80
2023-01-31T22:53:50.966Z,0.90
2023-01-31T22:56:19.433Z,0.75
2023-01-31T22:58:47.235Z,0.82
2023-01-31T23:01:21.902Z,0.77
2023-01-31T23:03:49.959Z,0.68
2023-01-31T23:06:18.361Z,0.68
2023-01-31T23:08:45.877Z,0.82
2023-01-31T23:11:15.963Z,0.63
2023-01-31T23:13:44.171Z,0.80
2023-01-31T23:16:43.126Z,0.80
2023-01-31T23:19:11.211Z,0.77
2023-01-31T23:21:42.913Z,0.50
2023-01-31T23:24:10.994Z,0.45
2023-01-31T23:26:38.286Z,0.60
2023-01-31T23:29:05.627Z,0.80
2023-01-31T23:31:32.961Z,0.60
2023-01-31T23:34:00.981Z,0.75
2023-01-31T23:36:28.756Z,0.98
2023-01-31T23:38:56.223Z,0.90
2023-01-31T23:41:23.340Z,0.60
2023-01-31T23:43:50.547Z,0.52
2023-01-31T23:46:17.736Z,0.60
2023-01-31T23:48:44.936Z,0.50
2023-01-31T23:51:12.108Z,0.50
2023-01-31T23:53:39.243Z,0.75
2023-01-31T23:56:07.054Z,0.57
2023-01-31T23:58:34.353Z,0.50
